sensor_id;sensor_type;location;lat;lon;timestamp;P1;durP1;ratioP1;P2;durP2;ratioP2
10399;SDS011;10031;51.180;17.168;2023-02-24T00:02:01;68.10;;;38.07;;
10399;SDS011;10031;51.180;17.168;2023-02-24T00:04:37;65.30;;;37.50;;
10399;SDS011;10031;51.180;17.168;2023-02-24T00:07:04;69.33;;;38.13;;
10399;SDS011;10031;51.180;17.168;2023-02-24T00:09:31;67.10;;;38.43;;
10399;SDS011;10031;51.180;17.168;2023-02-24T00:14:29;67.50;;;38.50;;
10399;SDS011;10031;51.180;17.168;2023-02-24T00:16:58;69.37;;;39.40;;
10399;SDS011;10031;51.180;17.168;2023-02-24T00:19:30;68.40;;;37.37;;
10399;SDS011;10031;51.180;17.168;2023-02-24T00:22:02;67.40;;;37.83;;
10399;SDS011;10031;51.180;17.168;2023-02-24T00:24:30;73.97;;;40.43;;
10399;SDS011;10031;51.180;17.168;2023-02-24T00:26:59;67.23;;;37.50;;
10399;SDS011;10031;51.180;17.168;2023-02-24T00:29:29;69.67;;;38.83;;
10399;SDS011;10031;51.180;17.168;2023-02-24T00:31:56;69.17;;;38.37;;
10399;SDS011;10031;51.180;17.168;2023-02-24T00:34:34;67.47;;;37.47;;
10399;SDS011;10031;51.180;17.168;2023-02-24T00:37:01;67.87;;;38.07;;
10399;SDS011;10031;51.180;17.168;2023-02-24T00:39:31;70.73;;;39.90;;
10399;SDS011;10031;51.180;17.168;2023-02-24T00:41:58;73.70;;;40.73;;
10399;SDS011;10031;51.180;17.168;2023-02-24T00:44:38;75.27;;;40.90;;
10399;SDS011;10031;51.180;17.168;2023-02-24T00:47:08;69.17;;;39.40;;
10399;SDS011;10031;51.180;17.168;2023-02-24T00:49:37;74.10;;;42.30;;
10399;SDS011;10031;51.180;17.168;2023-02-24T00:52:08;75.40;;;40.73;;
10399;SDS011;10031;51.180;17.168;2023-02-24T00:54:42;74.20;;;41.57;;
10399;SDS011;10031;51.180;17.168;2023-02-24T00:57:10;79.10;;;41.87;;
10399;SDS011;10031;51.180;17.168;2023-02-24T00:59:36;80.83;;;44.17;;
10399;SDS011;10031;51.180;17.168;2023-02-24T01:02:03;76.80;;;41.87;;
10399;SDS011;10031;51.180;17.168;2023-02-24T01:04:31;77.40;;;42.70;;
10399;SDS011;10031;51.180;17.168;2023-02-24T01:06:57;79.40;;;41.57;;
10399;SDS011;10031;51.180;17.168;2023-02-24T01:09:28;82.80;;;42.37;;
10399;SDS011;10031;51.180;17.168;2023-02-24T01:11:59;77.77;;;41.37;;
10399;SDS011;10031;51.180;17.168;2023-02-24T01:14:46;79.67;;;42.70;;
10399;SDS011;10031;51.180;17.168;2023-02-24T01:17:15;75.83;;;41.37;;
10399;SDS011;10031;51.180;17.168;2023-02-24T01:19:42;79.90;;;41.60;;
10399;SDS011;10031;51.180;17.168;2023-02-24T01:22:10;84.97;;;42.73;;
10399;SDS011;10031;51.180;17.168;2023-02-24T01:24:39;82.17;;;41.20;;
10399;SDS011;10031;51.180;17.168;2023-02-24T01:27:07;76.50;;;41.37;;
10399;SDS011;10031;51.180;17.168;2023-02-24T01:29:36;79.20;;;42.40;;
10399;SDS011;10031;51.180;17.168;2023-02-24T01:32:06;79.43;;;41.60;;
10399;SDS011;10031;51.180;17.168;2023-02-24T01:34:46;74.17;;;39.80;;
10399;SDS011;10031;51.180;17.168;2023-02-24T01:37:15;72.70;;;40.23;;
10399;SDS011;10031;51.180;17.168;2023-02-24T01:39:43;80.20;;;41.20;;
10399;SDS011;10031;51.180;17.168;2023-02-24T01:42:11;77.10;;;41.67;;
10399;SDS011;10031;51.180;17.168;2023-02-24T01:47:14;72.90;;;39.77;;
10399;SDS011;10031;51.180;17.168;2023-02-24T01:49:45;76.33;;;40.70;;
10399;SDS011;10031;51.180;17.168;2023-02-24T01:52:15;78.70;;;41.80;;
10399;SDS011;10031;51.180;17.168;2023-02-24T01:54:45;71.63;;;39.67;;
10399;SDS011;10031;51.180;17.168;2023-02-24T01:57:16;71.80;;;39.37;;
10399;SDS011;10031;51.180;17.168;2023-02-24T01:59:45;74.33;;;40.33;;
10399;SDS011;10031;51.180;17.168;2023-02-24T02:02:14;70.43;;;38.73;;
10399;SDS011;10031;51.180;17.168;2023-02-24T02:04:43;75.60;;;41.23;;
10399;SDS011;10031;51.180;17.168;2023-02-24T02:07:11;73.90;;;38.97;;
10399;SDS011;10031;51.180;17.168;2023-02-24T02:09:39;78.73;;;41.73;;
10399;SDS011;10031;51.180;17.168;2023-02-24T02:12:11;75.67;;;41.13;;
10399;SDS011;10031;51.180;17.168;2023-02-24T02:14:38;71.60;;;39.57;;
10399;SDS011;10031;51.180;17.168;2023-02-24T02:17:16;79.87;;;40.93;;
10399;SDS011;10031;51.180;17.168;2023-02-24T02:28:33;89.67;;;45.80;;
10399;SDS011;10031;51.180;17.168;2023-02-24T02:34:01;102.33;;;49.50;;
10399;SDS011;10031;51.180;17.168;2023-02-24T02:36:45;91.97;;;49.10;;
10399;SDS011;10031;51.180;17.168;2023-02-24T02:39:26;96.93;;;47.27;;
10399;SDS011;10031;51.180;17.168;2023-02-24T02:47:27;88.27;;;44.07;;
10399;SDS011;10031;51.180;17.168;2023-02-24T02:55:40;83.80;;;43.73;;
10399;SDS011;10031;51.180;17.168;2023-02-24T02:58:13;84.13;;;43.87;;
10399;SDS011;10031;51.180;17.168;2023-02-24T03:00:41;90.97;;;43.67;;
10399;SDS011;10031;51.180;17.168;2023-02-24T03:03:23;85.83;;;42.90;;
10399;SDS011;10031;51.180;17.168;2023-02-24T03:05:57;85.07;;;43.10;;
10399;SDS011;10031;51.180;17.168;2023-02-24T03:09:02;80.77;;;40.70;;
10399;SDS011;10031;51.180;17.168;2023-02-24T03:12:02;79.30;;;41.80;;
10399;SDS011;10031;51.180;17.168;2023-02-24T03:14:33;76.03;;;40.40;;
10399;SDS011;10031;51.180;17.168;2023-02-24T03:17:03;77.70;;;39.77;;
10399;SDS011;10031;51.180;17.168;2023-02-24T03:19:34;77.83;;;40.63;;
10399;SDS011;10031;51.180;17.168;2023-02-24T03:25:05;85.07;;;41.47;;
10399;SDS011;10031;51.180;17.168;2023-02-24T03:27:48;82.43;;;41.37;;
10399;SDS011;10031;51.180;17.168;2023-02-24T03:30:21;78.07;;;41.43;;
10399;SDS011;10031;51.180;17.168;2023-02-24T03:33:12;82.57;;;41.27;;
10399;SDS011;10031;51.180;17.168;2023-02-24T03:35:44;84.80;;;43.03;;
10399;SDS011;10031;51.180;17.168;2023-02-24T03:38:11;80.60;;;39.47;;
10399;SDS011;10031;51.180;17.168;2023-02-24T03:40:38;84.77;;;41.83;;
10399;SDS011;10031;51.180;17.168;2023-02-24T03:43:41;84.57;;;42.87;;
10399;SDS011;10031;51.180;17.168;2023-02-24T03:46:00;84.77;;;40.33;;
10399;SDS011;10031;51.180;17.168;2023-02-24T03:48:29;81.60;;;40.23;;
10399;SDS011;10031;51.180;17.168;2023-02-24T03:50:57;83.13;;;41.07;;
10399;SDS011;10031;51.180;17.168;2023-02-24T03:58:55;81.57;;;40.57;;
10399;SDS011;10031;51.180;17.168;2023-02-24T04:02:03;87.73;;;40.37;;
10399;SDS011;10031;51.180;17.168;2023-02-24T04:07:42;88.03;;;42.30;;
10399;SDS011;10031;51.180;17.168;2023-02-24T04:10:38;93.77;;;42.77;;
10399;SDS011;10031;51.180;17.168;2023-02-24T04:16:00;96.03;;;42.93;;
10399;SDS011;10031;51.180;17.168;2023-02-24T04:18:34;90.13;;;42.70;;
10399;SDS011;10031;51.180;17.168;2023-02-24T04:21:01;88.67;;;42.37;;
10399;SDS011;10031;51.180;17.168;2023-02-24T04:23:30;85.37;;;40.93;;
10399;SDS011;10031;51.180;17.168;2023-02-24T04:26:02;97.17;;;43.23;;
10399;SDS011;10031;51.180;17.168;2023-02-24T04:28:30;97.47;;;42.70;;
10399;SDS011;10031;51.180;17.168;2023-02-24T04:31:00;95.83;;;42.77;;
10399;SDS011;10031;51.180;17.168;2023-02-24T04:33:34;93.50;;;42.27;;
10399;SDS011;10031;51.180;17.168;2023-02-24T04:36:00;95.10;;;41.77;;
10399;SDS011;10031;51.180;17.168;2023-02-24T04:38:34;93.13;;;43.63;;
10399;SDS011;10031;51.180;17.168;2023-02-24T04:41:01;95.33;;;40.70;;
10399;SDS011;10031;51.180;17.168;2023-02-24T04:43:27;93.87;;;41.03;;
10399;SDS011;10031;51.180;17.168;2023-02-24T04:45:53;92.97;;;42.37;;
10399;SDS011;10031;51.180;17.168;2023-02-24T04:48:21;92.60;;;41.73;;
10399;SDS011;10031;51.180;17.168;2023-02-24T04:50:47;99.80;;;43.63;;
10399;SDS011;10031;51.180;17.168;2023-02-24T04:53:19;100.83;;;42.77;;
10399;SDS011;10031;51.180;17.168;2023-02-24T04:55:51;99.37;;;41.63;;
10399;SDS011;10031;51.180;17.168;2023-02-24T04:58:18;93.00;;;41.93;;
10399;SDS011;10031;51.180;17.168;2023-02-24T05:00:52;100.00;;;41.33;;
10399;SDS011;10031;51.180;17.168;2023-02-24T05:03:20;100.10;;;41.17;;
10399;SDS011;10031;51.180;17.168;2023-02-24T05:05:53;89.33;;;40.47;;
10399;SDS011;10031;51.180;17.168;2023-02-24T05:08:21;93.30;;;41.47;;
10399;SDS011;10031;51.180;17.168;2023-02-24T05:10:49;98.03;;;42.43;;
10399;SDS011;10031;51.180;17.168;2023-02-24T05:13:24;93.43;;;41.53;;
10399;SDS011;10031;51.180;17.168;2023-02-24T05:15:53;97.77;;;39.70;;
10399;SDS011;10031;51.180;17.168;2023-02-24T05:18:21;93.40;;;40.87;;
10399;SDS011;10031;51.180;17.168;2023-02-24T05:20:54;85.07;;;39.23;;
10399;SDS011;10031;51.180;17.168;2023-02-24T05:23:43;89.90;;;40.73;;
10399;SDS011;10031;51.180;17.168;2023-02-24T05:26:17;86.50;;;39.70;;
10399;SDS011;10031;51.180;17.168;2023-02-24T05:28:45;89.00;;;41.30;;
10399;SDS011;10031;51.180;17.168;2023-02-24T05:31:25;95.47;;;38.60;;
10399;SDS011;10031;51.180;17.168;2023-02-24T05:33:54;87.03;;;37.10;;
10399;SDS011;10031;51.180;17.168;2023-02-24T05:36:24;85.43;;;39.87;;
10399;SDS011;10031;51.180;17.168;2023-02-24T05:38:53;78.43;;;38.67;;
10399;SDS011;10031;51.180;17.168;2023-02-24T05:41:24;77.73;;;37.13;;
10399;SDS011;10031;51.180;17.168;2023-02-24T05:44:00;82.37;;;36.33;;
10399;SDS011;10031;51.180;17.168;2023-02-24T05:46:32;84.33;;;37.30;;
10399;SDS011;10031;51.180;17.168;2023-02-24T05:49:01;74.60;;;34.27;;
10399;SDS011;10031;51.180;17.168;2023-02-24T05:51:33;74.70;;;35.13;;
10399;SDS011;10031;51.180;17.168;2023-02-24T05:54:08;69.93;;;33.70;;
10399;SDS011;10031;51.180;17.168;2023-02-24T05:56:39;61.83;;;29.03;;
10399;SDS011;10031;51.180;17.168;2023-02-24T05:59:09;72.43;;;34.27;;
10399;SDS011;10031;51.180;17.168;2023-02-24T06:01:39;67.37;;;31.37;;
10399;SDS011;10031;51.180;17.168;2023-02-24T06:04:06;66.50;;;31.67;;
10399;SDS011;10031;51.180;17.168;2023-02-24T06:06:34;64.13;;;29.40;;
10399;SDS011;10031;51.180;17.168;2023-02-24T06:09:11;62.90;;;30.93;;
10399;SDS011;10031;51.180;17.168;2023-02-24T06:11:39;65.67;;;29.83;;
10399;SDS011;10031;51.180;17.168;2023-02-24T06:14:06;62.73;;;28.10;;
10399;SDS011;10031;51.180;17.168;2023-02-24T06:16:33;44.53;;;19.90;;
10399;SDS011;10031;51.180;17.168;2023-02-24T06:19:00;57.23;;;25.43;;
10399;SDS011;10031;51.180;17.168;2023-02-24T06:21:26;53.63;;;22.70;;
10399;SDS011;10031;51.180;17.168;2023-02-24T06:23:55;49.87;;;22.57;;
10399;SDS011;10031;51.180;17.168;2023-02-24T06:26:22;46.23;;;21.43;;
10399;SDS011;10031;51.180;17.168;2023-02-24T06:28:51;48.53;;;21.33;;
10399;SDS011;10031;51.180;17.168;2023-02-24T06:31:18;42.60;;;18.90;;
10399;SDS011;10031;51.180;17.168;2023-02-24T06:33:45;52.47;;;22.20;;
10399;SDS011;10031;51.180;17.168;2023-02-24T06:36:11;50.27;;;21.53;;
10399;SDS011;10031;51.180;17.168;2023-02-24T06:38:38;46.87;;;21.80;;
10399;SDS011;10031;51.180;17.168;2023-02-24T06:41:04;48.77;;;20.67;;
10399;SDS011;10031;51.180;17.168;2023-02-24T06:43:42;48.60;;;21.70;;
10399;SDS011;10031;51.180;17.168;2023-02-24T06:46:12;51.23;;;22.37;;
10399;SDS011;10031;51.180;17.168;2023-02-24T06:48:40;52.23;;;23.43;;
10399;SDS011;10031;51.180;17.168;2023-02-24T06:51:08;56.97;;;22.77;;
10399;SDS011;10031;51.180;17.168;2023-02-24T06:53:37;51.13;;;22.97;;
10399;SDS011;10031;51.180;17.168;2023-02-24T06:56:16;54.43;;;23.53;;
10399;SDS011;10031;51.180;17.168;2023-02-24T06:58:48;51.20;;;21.63;;
10399;SDS011;10031;51.180;17.168;2023-02-24T07:01:21;57.77;;;23.60;;
10399;SDS011;10031;51.180;17.168;2023-02-24T07:03:53;59.40;;;25.23;;
10399;SDS011;10031;51.180;17.168;2023-02-24T07:06:34;57.43;;;25.17;;
10399;SDS011;10031;51.180;17.168;2023-02-24T07:09:03;51.47;;;23.83;;
10399;SDS011;10031;51.180;17.168;2023-02-24T07:11:32;52.40;;;24.57;;
10399;SDS011;10031;51.180;17.168;2023-02-24T07:13:59;54.80;;;24.07;;
10399;SDS011;10031;51.180;17.168;2023-02-24T07:16:26;47.47;;;21.63;;
10399;SDS011;10031;51.180;17.168;2023-02-24T07:18:59;47.80;;;21.47;;
10399;SDS011;10031;51.180;17.168;2023-02-24T07:21:32;49.90;;;21.27;;
10399;SDS011;10031;51.180;17.168;2023-02-24T07:24:04;45.50;;;21.67;;
10399;SDS011;10031;51.180;17.168;2023-02-24T07:26:35;49.80;;;21.13;;
10399;SDS011;10031;51.180;17.168;2023-02-24T07:29:05;44.70;;;19.63;;
10399;SDS011;10031;51.180;17.168;2023-02-24T07:31:35;44.73;;;19.53;;
10399;SDS011;10031;51.180;17.168;2023-02-24T07:34:01;43.07;;;18.83;;
10399;SDS011;10031;51.180;17.168;2023-02-24T07:36:28;35.10;;;15.73;;
10399;SDS011;10031;51.180;17.168;2023-02-24T07:38:55;32.87;;;14.10;;
10399;SDS011;10031;51.180;17.168;2023-02-24T07:41:23;35.60;;;16.93;;
10399;SDS011;10031;51.180;17.168;2023-02-24T07:43:52;35.13;;;15.40;;
10399;SDS011;10031;51.180;17.168;2023-02-24T07:46:23;36.03;;;16.43;;
10399;SDS011;10031;51.180;17.168;2023-02-24T07:48:51;24.57;;;12.73;;
10399;SDS011;10031;51.180;17.168;2023-02-24T07:51:19;37.50;;;17.40;;
10399;SDS011;10031;51.180;17.168;2023-02-24T07:53:47;37.20;;;16.90;;
10399;SDS011;10031;51.180;17.168;2023-02-24T07:56:15;38.30;;;17.50;;
10399;SDS011;10031;51.180;17.168;2023-02-24T07:58:47;39.37;;;18.00;;
10399;SDS011;10031;51.180;17.168;2023-02-24T08:01:21;42.47;;;18.07;;
10399;SDS011;10031;51.180;17.168;2023-02-24T08:03:48;41.17;;;18.70;;
10399;SDS011;10031;51.180;17.168;2023-02-24T08:06:16;36.17;;;16.47;;
10399;SDS011;10031;51.180;17.168;2023-02-24T08:08:51;31.00;;;13.97;;
10399;SDS011;10031;51.180;17.168;2023-02-24T08:11:28;34.37;;;15.60;;
10399;SDS011;10031;51.180;17.168;2023-02-24T08:14:06;37.10;;;16.43;;
10399;SDS011;10031;51.180;17.168;2023-02-24T08:16:41;39.93;;;16.57;;
10399;SDS011;10031;51.180;17.168;2023-02-24T08:19:09;33.67;;;15.33;;
10399;SDS011;10031;51.180;17.168;2023-02-24T08:21:42;46.80;;;18.27;;
10399;SDS011;10031;51.180;17.168;2023-02-24T08:24:15;37.07;;;15.60;;
10399;SDS011;10031;51.180;17.168;2023-02-24T08:26:46;30.67;;;13.60;;
10399;SDS011;10031;51.180;17.168;2023-02-24T08:29:35;27.77;;;13.80;;
10399;SDS011;10031;51.180;17.168;2023-02-24T08:32:21;32.50;;;13.77;;
10399;SDS011;10031;51.180;17.168;2023-02-24T08:34:49;31.43;;;13.13;;
10399;SDS011;10031;51.180;17.168;2023-02-24T08:37:21;35.00;;;14.83;;
10399;SDS011;10031;51.180;17.168;2023-02-24T08:39:47;31.87;;;13.87;;
10399;SDS011;10031;51.180;17.168;2023-02-24T08:42:18;31.33;;;13.77;;
10399;SDS011;10031;51.180;17.168;2023-02-24T08:44:45;29.10;;;13.30;;
10399;SDS011;10031;51.180;17.168;2023-02-24T08:47:14;26.97;;;12.27;;
10399;SDS011;10031;51.180;17.168;2023-02-24T08:49:45;32.80;;;12.93;;
10399;SDS011;10031;51.180;17.168;2023-02-24T08:52:13;34.37;;;14.20;;
10399;SDS011;10031;51.180;17.168;2023-02-24T08:54:41;36.30;;;15.63;;
10399;SDS011;10031;51.180;17.168;2023-02-24T08:57:13;33.10;;;14.50;;
10399;SDS011;10031;51.180;17.168;2023-02-24T08:59:42;35.23;;;15.33;;
10399;SDS011;10031;51.180;17.168;2023-02-24T09:02:18;34.63;;;15.50;;
10399;SDS011;10031;51.180;17.168;2023-02-24T09:04:52;32.50;;;15.77;;
10399;SDS011;10031;51.180;17.168;2023-02-24T09:07:33;32.00;;;16.07;;
10399;SDS011;10031;51.180;17.168;2023-02-24T09:10:12;32.43;;;15.40;;
10399;SDS011;10031;51.180;17.168;2023-02-24T09:12:41;34.17;;;15.17;;
10399;SDS011;10031;51.180;17.168;2023-02-24T09:15:09;27.27;;;13.07;;
10399;SDS011;10031;51.180;17.168;2023-02-24T09:17:45;35.43;;;16.33;;
10399;SDS011;10031;51.180;17.168;2023-02-24T09:20:13;32.43;;;15.23;;
10399;SDS011;10031;51.180;17.168;2023-02-24T09:23:00;33.83;;;15.43;;
10399;SDS011;10031;51.180;17.168;2023-02-24T09:25:38;33.00;;;15.67;;
10399;SDS011;10031;51.180;17.168;2023-02-24T09:28:10;33.93;;;15.07;;
10399;SDS011;10031;51.180;17.168;2023-02-24T09:33:24;30.17;;;14.13;;
10399;SDS011;10031;51.180;17.168;2023-02-24T09:36:06;23.47;;;12.50;;
10399;SDS011;10031;51.180;17.168;2023-02-24T09:38:38;27.20;;;12.63;;
10399;SDS011;10031;51.180;17.168;2023-02-24T09:44:23;22.77;;;10.10;;
10399;SDS011;10031;51.180;17.168;2023-02-24T09:47:01;23.13;;;11.30;;
10399;SDS011;10031;51.180;17.168;2023-02-24T09:52:58;21.73;;;11.17;;
10399;SDS011;10031;51.180;17.168;2023-02-24T10:04:10;20.43;;;10.13;;
10399;SDS011;10031;51.180;17.168;2023-02-24T10:12:18;15.30;;;8.40;;
10399;SDS011;10031;51.180;17.168;2023-02-24T10:17:22;9.13;;;5.73;;
10399;SDS011;10031;51.180;17.168;2023-02-24T10:22:35;12.83;;;6.10;;
10399;SDS011;10031;51.180;17.168;2023-02-24T10:28:43;9.83;;;5.17;;
10399;SDS011;10031;51.180;17.168;2023-02-24T10:34:12;12.13;;;6.53;;
10399;SDS011;10031;51.180;17.168;2023-02-24T10:37:17;13.90;;;6.13;;
10399;SDS011;10031;51.180;17.168;2023-02-24T10:39:46;9.07;;;5.57;;
10399;SDS011;10031;51.180;17.168;2023-02-24T10:42:25;14.03;;;6.30;;
10399;SDS011;10031;51.180;17.168;2023-02-24T10:47:43;11.30;;;5.60;;
10399;SDS011;10031;51.180;17.168;2023-02-24T10:50:20;10.23;;;5.07;;
10399;SDS011;10031;51.180;17.168;2023-02-24T10:52:50;9.40;;;5.00;;
10399;SDS011;10031;51.180;17.168;2023-02-24T10:55:25;10.20;;;5.27;;
10399;SDS011;10031;51.180;17.168;2023-02-24T11:00:51;7.83;;;4.90;;
10399;SDS011;10031;51.180;17.168;2023-02-24T11:03:58;7.10;;;4.27;;
10399;SDS011;10031;51.180;17.168;2023-02-24T11:06:27;8.23;;;4.30;;
10399;SDS011;10031;51.180;17.168;2023-02-24T11:08:56;8.63;;;5.00;;
10399;SDS011;10031;51.180;17.168;2023-02-24T11:11:41;9.80;;;4.80;;
10399;SDS011;10031;51.180;17.168;2023-02-24T11:14:25;9.27;;;4.77;;
10399;SDS011;10031;51.180;17.168;2023-02-24T11:17:21;7.97;;;4.63;;
10399;SDS011;10031;51.180;17.168;2023-02-24T11:19:58;8.40;;;4.97;;
10399;SDS011;10031;51.180;17.168;2023-02-24T11:22:47;7.10;;;4.17;;
10399;SDS011;10031;51.180;17.168;2023-02-24T11:27:48;8.33;;;4.53;;
10399;SDS011;10031;51.180;17.168;2023-02-24T11:30:38;9.17;;;5.30;;
10399;SDS011;10031;51.180;17.168;2023-02-24T11:33:22;11.23;;;5.80;;
10399;SDS011;10031;51.180;17.168;2023-02-24T11:38:39;10.07;;;5.47;;
10399;SDS011;10031;51.180;17.168;2023-02-24T11:41:22;7.73;;;5.07;;
10399;SDS011;10031;51.180;17.168;2023-02-24T11:46:53;8.90;;;4.60;;
10399;SDS011;10031;51.180;17.168;2023-02-24T11:49:29;6.53;;;3.67;;
10399;SDS011;10031;51.180;17.168;2023-02-24T11:52:09;6.17;;;4.00;;
10399;SDS011;10031;51.180;17.168;2023-02-24T11:55:00;9.23;;;4.23;;
10399;SDS011;10031;51.180;17.168;2023-02-24T11:57:49;8.60;;;4.50;;
10399;SDS011;10031;51.180;17.168;2023-02-24T12:02:53;7.30;;;4.27;;
10399;SDS011;10031;51.180;17.168;2023-02-24T12:05:48;7.13;;;4.23;;
10399;SDS011;10031;51.180;17.168;2023-02-24T12:10:46;10.50;;;5.13;;
10399;SDS011;10031;51.180;17.168;2023-02-24T12:16:21;9.40;;;4.47;;
10399;SDS011;10031;51.180;17.168;2023-02-24T12:19:01;9.57;;;5.90;;
10399;SDS011;10031;51.180;17.168;2023-02-24T12:21:43;11.00;;;6.03;;
10399;SDS011;10031;51.180;17.168;2023-02-24T12:24:16;11.83;;;6.60;;
10399;SDS011;10031;51.180;17.168;2023-02-24T12:29:40;12.00;;;6.53;;
10399;SDS011;10031;51.180;17.168;2023-02-24T12:34:49;13.13;;;6.80;;
10399;SDS011;10031;51.180;17.168;2023-02-24T12:40:46;12.80;;;7.30;;
10399;SDS011;10031;51.180;17.168;2023-02-24T12:43:44;12.10;;;8.23;;
10399;SDS011;10031;51.180;17.168;2023-02-24T12:46:35;14.63;;;8.33;;
10399;SDS011;10031;51.180;17.168;2023-02-24T12:58:07;13.30;;;8.97;;
10399;SDS011;10031;51.180;17.168;2023-02-24T13:03:15;15.73;;;11.00;;
10399;SDS011;10031;51.180;17.168;2023-02-24T13:05:54;11.17;;;8.70;;
10399;SDS011;10031;51.180;17.168;2023-02-24T13:08:56;13.80;;;9.27;;
10399;SDS011;10031;51.180;17.168;2023-02-24T13:14:13;11.50;;;8.20;;
10399;SDS011;10031;51.180;17.168;2023-02-24T13:16:45;12.33;;;8.60;;
10399;SDS011;10031;51.180;17.168;2023-02-24T13:19:27;13.47;;;8.93;;
10399;SDS011;10031;51.180;17.168;2023-02-24T13:21:55;11.53;;;8.73;;
10399;SDS011;10031;51.180;17.168;2023-02-24T13:24:25;11.67;;;8.33;;
10399;SDS011;10031;51.180;17.168;2023-02-24T13:26:51;17.20;;;9.13;;
10399;SDS011;10031;51.180;17.168;2023-02-24T13:32:36;12.23;;;8.00;;
10399;SDS011;10031;51.180;17.168;2023-02-24T13:37:45;12.73;;;8.03;;
10399;SDS011;10031;51.180;17.168;2023-02-24T13:42:40;9.67;;;6.90;;
10399;SDS011;10031;51.180;17.168;2023-02-24T13:50:30;6.87;;;4.73;;
10399;SDS011;10031;51.180;17.168;2023-02-24T13:58:05;7.80;;;4.53;;
10399;SDS011;10031;51.180;17.168;2023-02-24T14:00:51;5.97;;;4.10;;
10399;SDS011;10031;51.180;17.168;2023-02-24T14:03:23;4.33;;;3.60;;
10399;SDS011;10031;51.180;17.168;2023-02-24T14:05:51;8.37;;;3.70;;
10399;SDS011;10031;51.180;17.168;2023-02-24T14:08:22;4.63;;;3.40;;
10399;SDS011;10031;51.180;17.168;2023-02-24T14:11:18;6.90;;;3.53;;
10399;SDS011;10031;51.180;17.168;2023-02-24T14:13:49;5.53;;;3.63;;
10399;SDS011;10031;51.180;17.168;2023-02-24T14:16:20;5.93;;;4.13;;
10399;SDS011;10031;51.180;17.168;2023-02-24T14:18:56;4.87;;;3.20;;
10399;SDS011;10031;51.180;17.168;2023-02-24T14:21:46;9.60;;;6.40;;
10399;SDS011;10031;51.180;17.168;2023-02-24T14:24:20;12.97;;;8.30;;
10399;SDS011;10031;51.180;17.168;2023-02-24T14:26:48;9.83;;;7.07;;
10399;SDS011;10031;51.180;17.168;2023-02-24T14:29:21;10.17;;;6.50;;
10399;SDS011;10031;51.180;17.168;2023-02-24T14:31:51;11.17;;;6.97;;
10399;SDS011;10031;51.180;17.168;2023-02-24T14:34:20;10.00;;;7.40;;
10399;SDS011;10031;51.180;17.168;2023-02-24T14:36:48;7.13;;;5.60;;
10399;SDS011;10031;51.180;17.168;2023-02-24T14:39:20;13.17;;;8.47;;
10399;SDS011;10031;51.180;17.168;2023-02-24T14:41:49;12.10;;;7.27;;
10399;SDS011;10031;51.180;17.168;2023-02-24T14:44:28;14.13;;;7.50;;
10399;SDS011;10031;51.180;17.168;2023-02-24T14:46:57;9.57;;;6.87;;
10399;SDS011;10031;51.180;17.168;2023-02-24T14:49:30;13.27;;;6.13;;
10399;SDS011;10031;51.180;17.168;2023-02-24T14:52:02;6.30;;;3.83;;
10399;SDS011;10031;51.180;17.168;2023-02-24T14:57:08;8.83;;;4.60;;
10399;SDS011;10031;51.180;17.168;2023-02-24T14:59:37;6.43;;;3.73;;
10399;SDS011;10031;51.180;17.168;2023-02-24T15:02:11;6.00;;;3.97;;
10399;SDS011;10031;51.180;17.168;2023-02-24T15:04:40;4.77;;;3.43;;
10399;SDS011;10031;51.180;17.168;2023-02-24T15:07:14;7.37;;;4.10;;
10399;SDS011;10031;51.180;17.168;2023-02-24T15:09:49;6.63;;;3.83;;
10399;SDS011;10031;51.180;17.168;2023-02-24T15:12:20;7.57;;;3.80;;
10399;SDS011;10031;51.180;17.168;2023-02-24T15:15:04;5.20;;;3.77;;
10399;SDS011;10031;51.180;17.168;2023-02-24T15:17:36;6.27;;;4.13;;
10399;SDS011;10031;51.180;17.168;2023-02-24T15:20:23;5.43;;;3.50;;
10399;SDS011;10031;51.180;17.168;2023-02-24T15:22:53;5.90;;;3.70;;
10399;SDS011;10031;51.180;17.168;2023-02-24T15:25:21;4.47;;;3.50;;
10399;SDS011;10031;51.180;17.168;2023-02-24T15:27:51;8.87;;;4.33;;
10399;SDS011;10031;51.180;17.168;2023-02-24T15:33:04;6.13;;;3.50;;
10399;SDS011;10031;51.180;17.168;2023-02-24T15:35:32;7.30;;;4.17;;
10399;SDS011;10031;51.180;17.168;2023-02-24T15:40:32;8.37;;;4.63;;
10399;SDS011;10031;51.180;17.168;2023-02-24T15:42:58;5.60;;;4.53;;
10399;SDS011;10031;51.180;17.168;2023-02-24T15:45:33;9.40;;;4.90;;
10399;SDS011;10031;51.180;17.168;2023-02-24T15:48:21;7.23;;;4.77;;
10399;SDS011;10031;51.180;17.168;2023-02-24T15:50:48;10.07;;;4.87;;
10399;SDS011;10031;51.180;17.168;2023-02-24T15:53:15;7.57;;;4.90;;
10399;SDS011;10031;51.180;17.168;2023-02-24T15:55:41;6.30;;;4.67;;
10399;SDS011;10031;51.180;17.168;2023-02-24T15:58:16;7.57;;;4.43;;
10399;SDS011;10031;51.180;17.168;2023-02-24T16:00:44;6.20;;;4.57;;
10399;SDS011;10031;51.180;17.168;2023-02-24T16:03:11;9.33;;;5.57;;
10399;SDS011;10031;51.180;17.168;2023-02-24T16:08:08;11.27;;;5.70;;
10399;SDS011;10031;51.180;17.168;2023-02-24T16:10:43;7.90;;;5.63;;
10399;SDS011;10031;51.180;17.168;2023-02-24T16:13:14;6.47;;;5.50;;
10399;SDS011;10031;51.180;17.168;2023-02-24T16:15:51;11.00;;;6.53;;
10399;SDS011;10031;51.180;17.168;2023-02-24T16:18:21;11.17;;;7.33;;
10399;SDS011;10031;51.180;17.168;2023-02-24T16:20:49;9.07;;;6.13;;
10399;SDS011;10031;51.180;17.168;2023-02-24T16:23:23;9.07;;;6.33;;
10399;SDS011;10031;51.180;17.168;2023-02-24T16:25:54;11.13;;;7.20;;
10399;SDS011;10031;51.180;17.168;2023-02-24T16:28:23;11.43;;;6.83;;
10399;SDS011;10031;51.180;17.168;2023-02-24T16:30:49;9.53;;;6.07;;
10399;SDS011;10031;51.180;17.168;2023-02-24T16:33:16;11.20;;;6.63;;
10399;SDS011;10031;51.180;17.168;2023-02-24T16:35:44;9.73;;;5.70;;
10399;SDS011;10031;51.180;17.168;2023-02-24T16:38:14;8.67;;;5.97;;
10399;SDS011;10031;51.180;17.168;2023-02-24T16:40:42;10.53;;;6.40;;
10399;SDS011;10031;51.180;17.168;2023-02-24T16:43:09;8.83;;;6.17;;
10399;SDS011;10031;51.180;17.168;2023-02-24T16:45:36;12.53;;;6.70;;
10399;SDS011;10031;51.180;17.168;2023-02-24T16:48:08;10.13;;;6.70;;
10399;SDS011;10031;51.180;17.168;2023-02-24T16:50:46;11.93;;;7.27;;
10399;SDS011;10031;51.180;17.168;2023-02-24T16:53:14;13.97;;;8.47;;
10399;SDS011;10031;51.180;17.168;2023-02-24T16:55:42;12.27;;;7.17;;
10399;SDS011;10031;51.180;17.168;2023-02-24T16:58:09;11.70;;;8.07;;
10399;SDS011;10031;51.180;17.168;2023-02-24T17:00:37;12.83;;;7.53;;
10399;SDS011;10031;51.180;17.168;2023-02-24T17:03:05;10.50;;;7.00;;
10399;SDS011;10031;51.180;17.168;2023-02-24T17:05:43;9.30;;;6.23;;
10399;SDS011;10031;51.180;17.168;2023-02-24T17:08:09;9.87;;;5.83;;
10399;SDS011;10031;51.180;17.168;2023-02-24T17:10:35;8.73;;;5.93;;
10399;SDS011;10031;51.180;17.168;2023-02-24T17:13:04;11.60;;;6.33;;
10399;SDS011;10031;51.180;17.168;2023-02-24T17:15:30;9.73;;;6.50;;
10399;SDS011;10031;51.180;17.168;2023-02-24T17:17:57;10.40;;;6.67;;
10399;SDS011;10031;51.180;17.168;2023-02-24T17:20:23;10.87;;;6.17;;